Airfield :
LOGIN :

Register | Disclaimer

   EN    FR    IT 

 










Legend :    VFR   Marginal VFR   IFR   Intensive IFR   Very Intensive IFR
Visi :
Ceiling :
>= 8 km
>= 3000ft
5 to 8 km
1000 to 3000 ft
1500m to 5 km
500 to 1000 ft
800 to 1500m
200 to 500 ft
< 800m
< 200 ft
Symbols :   Thunderstorms  Fog  Heavy snow  Heavy precipitations  Wind > 20 kt
SIGMETs :     Misc.  Thunderstorms  Icing  Turbulence  Mountain Waves  Volcanic Ashes







- Airport Elevation : 100 ft


EBDT - Schaffen

CURRENT METAR :
  • 201625Z AUTO VRB02KT 8000 FEW004/// BKN007/// OVC012/// 01/01 Q0999 GRN

EXPIRED METARs :
  • 201555Z AUTO VRB02KT 9999 SCT003/// BKN006/// BKN013/// 01/01 Q0999 YLO
  • 201548Z AUTO 10003KT 9999 SCT003/// BKN006/// OVC012/// 01/01 Q0999 YLO
  • 201525Z AUTO 12003KT 9999 -RA SCT002/// BKN004/// BKN011/// 01/01 Q0999 AMB
  • 201507Z AUTO 13003KT 6000 -RASN BKN002/// OVC011/// 01/01 Q0999 AMB
  • 201455Z AUTO 12004KT 3500 -SN BKN002/// BKN004/// OVC012/// 01/00 Q0999 AMB
  • 201425Z AUTO 13004KT 4100 -SN SCT002/// BKN004/// OVC007/// 01/01 Q0999 AMB
  • 201355Z AUTO 15005KT 6000 -SN SCT003/// BKN005/// 01/01 Q0999 YLO
  • 201348Z AUTO 15005KT 9000 -SN SCT003/// BKN005/// 01/01 Q1000 YLO
  • 201333Z AUTO 15004KT 9999 -RA SCT004/// BKN006/// BKN011/// 02/01 Q1000 YLO

Expired Forecast.
No reported NOTAMs for that airfield.
2 SIGMETs reported for the Brussels FIR (EBBU) :
 
Severe icing
EBBU SIGMET 04 VALID 201407/201700 EBBR
EBBU BRUSSELS FIR SEV ICE FCST E OF E004 FL025/100 MOV E WKN=
Severe turbulence
EBBU SIGMET 03 VALID 201400/201800 EBBR
EBBU BRUSSELS FIR SEV TURB FCST ENTIRE FIR FL180/310 MOV ENE NC=



MET'MAP, your aeronautical weather chart ! - Copyright ORBIFLY December 2007 - Disclaimer

ORBIFLY MET'MAP TEAM :

Programming & Development : Alexandra Zaïnal
Concept & Development : Baudouin d'Aumeries
Co-Development & Prog : Marc-Olivier Méhu
Technical & hardware support : Manuel Goepfert

Contact : metmap@orbifly.com




SOURCES & CREDITS :

   NOAA